Time;durP1;ratioP1;P1;durP2;ratioP2;P2;SDS_P1;SDS_P2;PMS_P1;PMS_P2;Temp;Humidity;BMP_temperature;BMP_pressure;BME280_temperature;BME280_humidity;BME280_pressure;Samples;Min_cycle;Max_cycle;Signal;HPM_P1;HPM_P2
2022/11/12 00:00:06;;;;;;;52.72;18.25;;;;;;;;;;5017918;28;20564;-38
2022/11/12 00:02:51;;;;;;;47.15;18.30;;;;;;;;;;5019816;28;20063;-38
2022/11/12 00:05:36;;;;;;;39.58;17.33;;;;;;;;;;5019904;28;20056;-38
2022/11/12 00:08:21;;;;;;;57.20;19.52;;;;;;;;;;5019698;28;20441;-38
2022/11/12 00:11:06;;;;;;;46.90;18.13;;;;;;;;;;5018102;28;20056;-38
2022/11/12 00:13:51;;;;;;;54.03;18.90;;;;;;;;;;5014632;28;20077;-38
2022/11/12 00:16:36;;;;;;;36.58;17.05;;;;;;;;;;5016701;28;20056;-38
2022/11/12 00:19:21;;;;;;;44.45;17.25;;;;;;;;;;5013535;28;20060;-39
2022/11/12 00:22:06;;;;;;;46.22;17.05;;;;;;;;;;5019622;28;20061;-40
2022/11/12 00:24:51;;;;;;;60.05;18.23;;;;;;;;;;5018935;28;20052;-39
2022/11/12 00:27:36;;;;;;;44.72;17.30;;;;;;;;;;5022455;28;20061;-38
2022/11/12 00:30:21;;;;;;;48.22;18.63;;;;;;;;;;5021999;28;20056;-39
2022/11/12 00:33:05;;;;;;;36.92;17.48;;;;;;;;;;5020506;28;20234;-39
2022/11/12 00:35:50;;;;;;;55.35;18.23;;;;;;;;;;5018297;28;20057;-38
2022/11/12 00:38:35;;;;;;;36.55;16.67;;;;;;;;;;5013046;28;20059;-39
2022/11/12 00:41:20;;;;;;;32.22;16.75;;;;;;;;;;5020893;28;20755;-39
2022/11/12 00:44:05;;;;;;;46.03;16.25;;;;;;;;;;5018627;28;20056;-39
2022/11/12 00:46:50;;;;;;;50.30;18.08;;;;;;;;;;5017117;28;20576;-38
2022/11/12 00:49:35;;;;;;;44.72;18.23;;;;;;;;;;5016537;28;20061;-39
2022/11/12 00:52:20;;;;;;;37.90;17.02;;;;;;;;;;5016500;28;20044;-39
2022/11/12 00:55:05;;;;;;;42.97;15.95;;;;;;;;;;5019385;28;20048;-38
2022/11/12 00:57:50;;;;;;;68.22;18.80;;;;;;;;;;5015830;28;20525;-39
2022/11/12 01:00:35;;;;;;;35.97;14.95;;;;;;;;;;5023348;28;20056;-38
2022/11/12 01:03:20;;;;;;;32.70;14.65;;;;;;;;;;5020538;28;20060;-40
2022/11/12 01:06:07;;;;;;;42.70;15.70;;;;;;;;;;5020891;28;20052;-39
2022/11/12 01:08:53;;;;;;;42.30;16.13;;;;;;;;;;5013266;28;20108;-39
2022/11/12 01:11:39;;;;;;;40.42;14.80;;;;;;;;;;5016204;28;20201;-39
2022/11/12 01:14:24;;;;;;;35.10;14.23;;;;;;;;;;5018477;28;20060;-38
2022/11/12 01:17:09;;;;;;;38.25;14.60;;;;;;;;;;5014815;28;20053;-40
2022/11/12 01:19:54;;;;;;;53.53;15.60;;;;;;;;;;5015160;28;20528;-38
2022/11/12 01:22:39;;;;;;;33.47;14.52;;;;;;;;;;5014848;28;20057;-39
2022/11/12 01:25:23;;;;;;;42.25;15.40;;;;;;;;;;5018467;28;20044;-40
2022/11/12 01:28:08;;;;;;;40.67;15.18;;;;;;;;;;5018916;28;20099;-38
2022/11/12 01:30:54;;;;;;;58.92;16.88;;;;;;;;;;5016449;28;20048;-39
2022/11/12 01:33:40;;;;;;;53.95;16.15;;;;;;;;;;5020011;28;20052;-41
2022/11/12 01:36:29;;;;;;;40.85;13.75;;;;;;;;;;5019742;28;20207;-39
2022/11/12 01:39:14;;;;;;;41.22;15.30;;;;;;;;;;5019194;28;20640;-39
2022/11/12 01:41:59;;;;;;;56.45;16.45;;;;;;;;;;5016782;28;20056;-39
2022/11/12 01:44:45;;;;;;;41.25;15.02;;;;;;;;;;5018601;28;20112;-39
2022/11/12 01:47:31;;;;;;;41.05;14.90;;;;;;;;;;5016471;28;20040;-39
2022/11/12 01:50:25;;;;;;;49.03;15.90;;;;;;;;;;5017608;28;20051;-38
2022/11/12 01:53:10;;;;;;;;;;;;;;;;;;5015972;28;20049;-39
2022/11/12 01:55:56;;;;;;;37.15;14.48;;;;;;;;;;5017296;28;19932;-39
2022/11/12 01:58:41;;;;;;;32.05;13.20;;;;;;;;;;5017867;28;20134;-39
2022/11/12 02:01:26;;;;;;;35.72;14.50;;;;;;;;;;5016186;28;20068;-39
2022/11/12 02:04:11;;;;;;;43.58;15.05;;;;;;;;;;5019124;28;20104;-38
2022/11/12 02:06:57;;;;;;;46.40;13.98;;;;;;;;;;5015588;28;20053;-39
2022/11/12 02:09:42;;;;;;;44.78;14.00;;;;;;;;;;5010925;28;20053;-39
2022/11/12 02:15:31;;;;;;;36.60;13.25;;;;;;;;;;5020263;28;20052;-39
2022/11/12 02:18:16;;;;;;;35.95;13.57;;;;;;;;;;5016292;28;20064;-39
2022/11/12 02:21:03;;;;;;;47.28;14.55;;;;;;;;;;5019234;28;20068;-39
2022/11/12 02:24:15;;;;;;;40.85;14.00;;;;;;;;;;5015485;28;20053;-39
2022/11/12 02:27:00;;;;;;;38.53;14.43;;;;;;;;;;4993969;28;20072;-39
2022/11/12 02:29:45;;;;;;;46.30;15.73;;;;;;;;;;4994987;28;20170;-38
2022/11/12 02:32:30;;;;;;;43.53;16.92;;;;;;;;;;4994649;28;20458;-39
2022/11/12 02:35:15;;;;;;;27.65;13.85;;;;;;;;;;4994945;28;20053;-39
2022/11/12 02:38:00;;;;;;;41.22;14.57;;;;;;;;;;4997215;28;20061;-39
2022/11/12 02:40:46;;;;;;;41.90;14.25;;;;;;;;;;4989778;28;20066;-38
2022/11/12 02:43:31;;;;;;;36.90;14.80;;;;;;;;;;4990059;28;20574;-39
2022/11/12 02:46:16;;;;;;;49.95;16.20;;;;;;;;;;4994676;28;20067;-39
2022/11/12 02:49:01;;;;;;;55.88;15.73;;;;;;;;;;4995137;28;20049;-38
2022/11/12 02:51:45;;;;;;;40.22;14.07;;;;;;;;;;4996468;28;20062;-38
2022/11/12 02:54:31;;;;;;;49.58;15.40;;;;;;;;;;4998314;28;20057;-39
2022/11/12 02:57:16;;;;;;;36.60;14.48;;;;;;;;;;4993529;28;20117;-39
2022/11/12 03:00:03;;;;;;;41.78;15.45;;;;;;;;;;4994952;28;20146;-40
2022/11/12 03:03:00;;;;;;;38.92;15.30;;;;;;;;;;4998458;28;20525;-39
2022/11/12 03:05:52;;;;;;;45.67;16.13;;;;;;;;;;5014885;28;20164;-39
2022/11/12 03:08:37;;;;;;;33.00;15.55;;;;;;;;;;5019523;28;20168;-39
2022/11/12 03:11:22;;;;;;;43.83;15.85;;;;;;;;;;5014081;28;20508;-40
2022/11/12 03:14:07;;;;;;;39.20;15.15;;;;;;;;;;5019648;28;20518;-38
2022/11/12 03:16:52;;;;;;;37.60;15.32;;;;;;;;;;5017413;28;20401;-39
2022/11/12 03:19:37;;;;;;;35.58;15.40;;;;;;;;;;5019505;28;20127;-39
2022/11/12 03:22:22;;;;;;;47.47;16.65;;;;;;;;;;5018982;28;20395;-41
2022/11/12 03:25:07;;;;;;;49.83;16.23;;;;;;;;;;5019735;28;20057;-39
2022/11/12 03:27:57;;;;;;;52.47;15.93;;;;;;;;;;5020000;28;20048;-39
2022/11/12 03:30:42;;;;;;;35.67;14.55;;;;;;;;;;5023426;28;20061;-39
2022/11/12 03:33:27;;;;;;;48.00;15.77;;;;;;;;;;5022754;28;20143;-39
2022/11/12 03:36:12;;;;;;;35.50;13.95;;;;;;;;;;5019647;28;20068;-39
2022/11/12 03:38:57;;;;;;;43.22;15.40;;;;;;;;;;5019275;28;20537;-39
2022/11/12 03:41:43;;;;;;;47.13;16.42;;;;;;;;;;5012899;28;20064;-38
2022/11/12 03:44:27;;;;;;;43.75;17.30;;;;;;;;;;5022975;28;20049;-39
2022/11/12 03:47:12;;;;;;;50.13;15.95;;;;;;;;;;5020908;28;20525;-40
2022/11/12 03:49:58;;;;;;;45.97;17.33;;;;;;;;;;5015114;28;20119;-39
2022/11/12 03:52:43;;;;;;;35.00;16.05;;;;;;;;;;5018052;28;20060;-38
2022/11/12 03:55:28;;;;;;;56.05;17.63;;;;;;;;;;5020576;28;20053;-38
2022/11/12 03:58:13;;;;;;;42.72;16.30;;;;;;;;;;5014716;28;20060;-39
2022/11/12 04:00:59;;;;;;;63.58;20.45;;;;;;;;;;5018173;28;20195;-38
2022/11/12 04:03:44;;;;;;;51.78;18.73;;;;;;;;;;5019987;28;20107;-39
2022/11/12 04:09:32;;;;;;;52.40;19.63;;;;;;;;;;5021769;28;20056;-39
2022/11/12 04:15:21;;;;;;;55.20;20.73;;;;;;;;;;5022027;28;20056;-39
2022/11/12 04:27:24;;;;;;;40.83;17.90;;;;;;;;;;5020005;28;20049;-39
2022/11/12 04:30:17;;;;;;;66.78;23.38;;;;;;;;;;5016161;28;20083;-40
2022/11/12 04:33:02;;;;;;;46.70;20.80;;;;;;;;;;5019094;28;20049;-39
2022/11/12 04:35:47;;;;;;;54.35;20.75;;;;;;;;;;5013116;28;20056;-38
2022/11/12 04:38:32;;;;;;;55.40;21.63;;;;;;;;;;5016624;28;20187;-39
2022/11/12 04:47:25;;;;;;;57.33;22.58;;;;;;;;;;5020970;28;20176;-40
2022/11/12 04:50:12;;;;;;;66.25;23.25;;;;;;;;;;5016151;28;20084;-39
2022/11/12 04:52:57;;;;;;;64.15;21.98;;;;;;;;;;5018561;28;20123;-40
2022/11/12 04:55:42;;;;;;;58.97;22.45;;;;;;;;;;5018951;28;20060;-39
2022/11/12 04:58:27;;;;;;;55.97;21.88;;;;;;;;;;5017184;28;20073;-39
2022/11/12 05:01:13;;;;;;;61.08;22.13;;;;;;;;;;5020307;28;20045;-39
2022/11/12 05:03:58;;;;;;;81.68;24.33;;;;;;;;;;5016869;28;20057;-39
2022/11/12 05:06:53;;;;;;;53.85;20.33;;;;;;;;;;5012811;28;20045;-38
2022/11/12 05:09:38;;;;;;;50.42;19.77;;;;;;;;;;5020268;28;20079;-39
2022/11/12 05:12:23;;;;;;;72.25;23.15;;;;;;;;;;5019945;28;20049;-38
2022/11/12 05:15:09;;;;;;;51.28;20.52;;;;;;;;;;5016413;28;20135;-39
2022/11/12 05:17:54;;;;;;;59.78;22.00;;;;;;;;;;5019029;28;20065;-38
2022/11/12 05:20:38;;;;;;;56.83;20.35;;;;;;;;;;5019963;28;20055;-39
2022/11/12 05:23:23;;;;;;;56.15;21.52;;;;;;;;;;5016940;28;20417;-40
2022/11/12 05:26:08;;;;;;;58.45;21.58;;;;;;;;;;5017256;28;20185;-39
2022/11/12 05:28:53;;;;;;;56.45;20.42;;;;;;;;;;5012025;28;20052;-39
2022/11/12 05:31:38;;;;;;;54.03;20.35;;;;;;;;;;5014260;28;20069;-39
2022/11/12 05:34:23;;;;;;;65.22;19.85;;;;;;;;;;5017528;28;20735;-39
2022/11/12 05:37:08;;;;;;;49.65;18.60;;;;;;;;;;5019447;28;20060;-40
2022/11/12 05:39:53;;;;;;;64.53;21.23;;;;;;;;;;5016975;28;20068;-38
2022/11/12 05:42:38;;;;;;;55.88;20.05;;;;;;;;;;5021114;28;20056;-39
2022/11/12 05:45:23;;;;;;;47.08;17.90;;;;;;;;;;5016925;28;20558;-39
2022/11/12 05:48:08;;;;;;;48.83;18.80;;;;;;;;;;5017352;28;20055;-39
2022/11/12 05:50:53;;;;;;;52.90;17.83;;;;;;;;;;5013820;28;20052;-40
2022/11/12 05:53:59;;;;;;;53.33;20.00;;;;;;;;;;5014738;28;20058;-39
2022/11/12 05:56:44;;;;;;;45.22;19.95;;;;;;;;;;5016798;28;20060;-39
2022/11/12 05:59:29;;;;;;;55.90;20.65;;;;;;;;;;5017578;28;20417;-39
2022/11/12 06:02:14;;;;;;;47.22;19.40;;;;;;;;;;5015677;28;20053;-38
2022/11/12 06:04:59;;;;;;;70.40;21.80;;;;;;;;;;5015613;28;20405;-39
2022/11/12 06:07:44;;;;;;;57.70;19.35;;;;;;;;;;5011245;28;20053;-39
2022/11/12 06:10:29;;;;;;;59.53;21.23;;;;;;;;;;5017215;28;20103;-39
2022/11/12 06:13:15;;;;;;;65.78;20.00;;;;;;;;;;5017091;28;20584;-39
2022/11/12 06:15:59;;;;;;;61.20;21.50;;;;;;;;;;5015853;28;20535;-39
2022/11/12 06:18:45;;;;;;;63.25;22.55;;;;;;;;;;5020397;28;20068;-39
2022/11/12 06:21:29;;;;;;;57.47;20.90;;;;;;;;;;5019570;28;20056;-39
2022/11/12 06:24:15;;;;;;;59.63;21.02;;;;;;;;;;5016063;28;20513;-39
2022/11/12 06:27:00;;;;;;;73.50;23.00;;;;;;;;;;5016174;28;20137;-40
2022/11/12 06:29:44;;;;;;;64.65;24.15;;;;;;;;;;5017398;28;20043;-39
2022/11/12 06:32:29;;;;;;;51.60;22.33;;;;;;;;;;5019288;28;20520;-39
2022/11/12 06:35:15;;;;;;;57.80;23.63;;;;;;;;;;5017479;28;20053;-39
2022/11/12 06:38:00;;;;;;;66.72;25.67;;;;;;;;;;5011713;28;20057;-38
2022/11/12 06:40:45;;;;;;;77.30;26.55;;;;;;;;;;5014664;28;20085;-39
2022/11/12 06:43:30;;;;;;;50.55;24.60;;;;;;;;;;5015232;28;20052;-39
2022/11/12 06:46:16;;;;;;;54.67;25.35;;;;;;;;;;5018107;28;20402;-39
2022/11/12 06:49:01;;;;;;;72.78;26.52;;;;;;;;;;5021304;28;20532;-39
2022/11/12 06:51:46;;;;;;;58.72;25.70;;;;;;;;;;5024520;28;20164;-38
2022/11/12 06:54:30;;;;;;;50.35;25.73;;;;;;;;;;5020190;28;20056;-39
2022/11/12 06:57:15;;;;;;;46.47;24.35;;;;;;;;;;5022589;28;20522;-39
2022/11/12 07:00:01;;;;;;;59.13;23.23;;;;;;;;;;5020899;28;20111;-39
2022/11/12 07:02:46;;;;;;;60.78;25.85;;;;;;;;;;5014024;28;20060;-39
2022/11/12 07:05:30;;;;;;;49.28;23.70;;;;;;;;;;5017622;28;20049;-39
2022/11/12 07:08:16;;;;;;;57.15;24.55;;;;;;;;;;5021012;28;20585;-39
2022/11/12 07:11:01;;;;;;;51.00;23.30;;;;;;;;;;5020065;28;20044;-38
2022/11/12 07:13:46;;;;;;;57.05;24.13;;;;;;;;;;5021444;28;20114;-39
2022/11/12 07:16:31;;;;;;;55.85;23.73;;;;;;;;;;5018954;28;20049;-38
2022/11/12 07:19:16;;;;;;;55.70;22.33;;;;;;;;;;5019860;28;20112;-39
2022/11/12 07:22:01;;;;;;;58.72;23.75;;;;;;;;;;5019147;28;20057;-39
2022/11/12 07:24:46;;;;;;;58.17;24.02;;;;;;;;;;5017859;28;20049;-39
2022/11/12 07:27:31;;;;;;;52.78;24.27;;;;;;;;;;5023631;28;20142;-39
2022/11/12 07:30:16;;;;;;;53.83;24.98;;;;;;;;;;5022187;28;20065;-39
2022/11/12 07:33:01;;;;;;;46.25;24.63;;;;;;;;;;5016380;28;20065;-39
2022/11/12 07:35:46;;;;;;;55.70;23.77;;;;;;;;;;5020089;28;20525;-39
2022/11/12 07:38:33;;;;;;;69.38;26.38;;;;;;;;;;5018293;28;20510;-39
2022/11/12 07:41:19;;;;;;;59.80;25.55;;;;;;;;;;5016974;28;20042;-40
2022/11/12 07:44:04;;;;;;;60.03;26.83;;;;;;;;;;5017118;28;20591;-39
2022/11/12 07:46:49;;;;;;;66.68;26.25;;;;;;;;;;5016784;28;20053;-39
2022/11/12 07:49:34;;;;;;;57.47;24.45;;;;;;;;;;5021099;28;20051;-39
2022/11/12 07:52:19;;;;;;;66.30;28.02;;;;;;;;;;5019287;28;20579;-40
2022/11/12 07:55:04;;;;;;;68.90;25.70;;;;;;;;;;5018548;28;20108;-39
2022/11/12 07:57:49;;;;;;;59.67;25.70;;;;;;;;;;5021237;28;20111;-39
2022/11/12 08:00:34;;;;;;;61.15;26.33;;;;;;;;;;5022144;28;20602;-39
2022/11/12 08:03:19;;;;;;;54.65;26.35;;;;;;;;;;5021359;28;20113;-40
2022/11/12 08:06:04;;;;;;;58.22;25.00;;;;;;;;;;5019801;28;20056;-39
2022/11/12 08:08:53;;;;;;;60.63;24.95;;;;;;;;;;5020527;28;20165;-39
2022/11/12 08:11:38;;;;;;;51.88;24.65;;;;;;;;;;5020027;28;20051;-38
2022/11/12 08:14:23;;;;;;;67.30;27.02;;;;;;;;;;5022213;28;20163;-39
2022/11/12 08:17:08;;;;;;;48.88;25.75;;;;;;;;;;5018006;28;20060;-39
2022/11/12 08:19:54;;;;;;;59.72;26.20;;;;;;;;;;5013212;28;20410;-39
2022/11/12 08:22:39;;;;;;;73.75;26.90;;;;;;;;;;5017633;28;20135;-40
2022/11/12 08:25:31;;;;;;;71.18;28.45;;;;;;;;;;5017518;28;20556;-39
2022/11/12 08:28:16;;;;;;;56.30;26.83;;;;;;;;;;5018319;28;20111;-40
2022/11/12 08:31:03;;;;;;;68.90;29.45;;;;;;;;;;5017353;28;20180;-44
2022/11/12 08:33:48;;;;;;;69.07;29.13;;;;;;;;;;5016382;28;20199;-39
2022/11/12 08:36:33;;;;;;;69.88;31.10;;;;;;;;;;5022728;28;20146;-40
2022/11/12 08:39:18;;;;;;;55.30;28.90;;;;;;;;;;5022756;28;20103;-40
2022/11/12 08:42:03;;;;;;;61.13;29.63;;;;;;;;;;5014170;28;20048;-40
2022/11/12 08:44:48;;;;;;;79.13;30.60;;;;;;;;;;5018248;28;20052;-41
2022/11/12 08:47:33;;;;;;;66.80;31.05;;;;;;;;;;5017018;28;20060;-39
2022/11/12 08:50:18;;;;;;;70.65;33.30;;;;;;;;;;5017583;28;20096;-39
2022/11/12 08:53:04;;;;;;;69.45;32.90;;;;;;;;;;5015001;28;20057;-39
2022/11/12 08:55:53;;;;;;;69.95;33.50;;;;;;;;;;5015239;28;20061;-39
2022/11/12 08:58:38;;;;;;;59.85;32.08;;;;;;;;;;5018010;28;20176;-39
2022/11/12 09:01:23;;;;;;;65.15;32.42;;;;;;;;;;5015790;28;20049;-39
2022/11/12 09:04:09;;;;;;;71.32;33.65;;;;;;;;;;5017778;28;20056;-40
2022/11/12 09:06:54;;;;;;;85.53;34.53;;;;;;;;;;5017953;28;20053;-39
2022/11/12 09:09:40;;;;;;;69.20;33.88;;;;;;;;;;5021805;28;20056;-39
2022/11/12 09:12:24;;;;;;;65.63;34.08;;;;;;;;;;5019330;28;20056;-39
2022/11/12 09:15:09;;;;;;;74.38;32.50;;;;;;;;;;5018319;28;20469;-39
2022/11/12 09:18:15;;;;;;;66.22;31.08;;;;;;;;;;5017640;28;20144;-38
2022/11/12 09:21:08;;;;;;;63.22;28.52;;;;;;;;;;5017946;28;20060;-39
2022/11/12 09:23:54;;;;;;;62.33;30.27;;;;;;;;;;5016950;28;20056;-39
2022/11/12 09:26:39;;;;;;;57.38;27.48;;;;;;;;;;5018748;28;20143;-38
2022/11/12 09:29:24;;;;;;;56.15;27.10;;;;;;;;;;5017896;28;20048;-39
2022/11/12 09:32:09;;;;;;;64.35;29.60;;;;;;;;;;5016971;28;20520;-38
2022/11/12 09:34:54;;;;;;;62.63;30.00;;;;;;;;;;5012568;28;20045;-39
2022/11/12 09:37:39;;;;;;;63.05;29.70;;;;;;;;;;5014606;28;20115;-39
2022/11/12 09:40:31;;;;;;;73.75;30.73;;;;;;;;;;5017182;28;20068;-39
2022/11/12 09:43:19;;;;;;;61.28;27.40;;;;;;;;;;5018691;28;20112;-38
2022/11/12 09:46:13;;;;;;;61.05;28.50;;;;;;;;;;5018154;28;20056;-39
2022/11/12 09:49:41;;;;;;;83.00;31.02;;;;;;;;;;5016846;28;20060;-39
2022/11/12 09:52:27;;;;;;;63.17;28.45;;;;;;;;;;5001703;28;20184;-39
2022/11/12 09:55:18;;;;;;;72.32;28.70;;;;;;;;;;5004765;28;20088;-39
2022/11/12 09:58:10;;;;;;;56.45;26.02;;;;;;;;;;5007668;28;20048;-39
2022/11/12 10:00:56;;;;;;;60.47;26.00;;;;;;;;;;5006540;28;20061;-40
2022/11/12 10:04:04;;;;;;;72.05;28.48;;;;;;;;;;5007879;28;20126;-39
2022/11/12 10:06:58;;;;;;;65.82;27.48;;;;;;;;;;5003915;28;20180;-39
2022/11/12 10:10:02;;;;;;;58.83;28.90;;;;;;;;;;5008210;28;20060;-39
2022/11/12 10:13:05;;;;;;;65.85;28.48;;;;;;;;;;5007032;28;20060;-39
2022/11/12 10:19:24;;;;;;;58.25;26.98;;;;;;;;;;5006012;28;20049;-38
2022/11/12 10:22:12;;;;;;;62.95;26.88;;;;;;;;;;5006829;28;20061;-39
2022/11/12 10:25:08;;;;;;;66.05;29.98;;;;;;;;;;5006559;28;20077;-39
2022/11/12 10:27:54;;;;;;;77.38;28.13;;;;;;;;;;5005093;28;20088;-38
2022/11/12 10:30:39;;;;;;;60.40;27.25;;;;;;;;;;5019679;28;20048;-39
2022/11/12 10:33:28;;;;;;;57.00;26.95;;;;;;;;;;5019047;28;20528;-39
2022/11/12 10:36:26;;;;;;;82.70;29.85;;;;;;;;;;5016752;28;20730;-39
2022/11/12 10:39:29;;;;;;;61.85;27.23;;;;;;;;;;5016713;28;20418;-38
2022/11/12 10:42:18;;;;;;;58.43;25.70;;;;;;;;;;5018383;28;20426;-39
2022/11/12 10:45:18;;;;;;;51.97;26.83;;;;;;;;;;5012849;28;20081;-39
2022/11/12 10:48:03;;;;;;;59.97;27.75;;;;;;;;;;5019154;28;20049;-39
2022/11/12 10:50:48;;;;;;;55.28;26.55;;;;;;;;;;5017634;28;20056;-39
2022/11/12 10:53:35;;;;;;;60.28;29.60;;;;;;;;;;5017775;28;20135;-38
2022/11/12 10:56:24;;;;;;;74.05;31.27;;;;;;;;;;5017000;28;20525;-38
2022/11/12 10:59:14;;;;;;;56.00;27.65;;;;;;;;;;5012638;28;20056;-40
2022/11/12 11:01:59;;;;;;;60.30;29.02;;;;;;;;;;5014387;28;20125;-38
2022/11/12 11:04:45;;;;;;;65.75;28.85;;;;;;;;;;5016542;28;20049;-39
2022/11/12 11:07:30;;;;;;;53.08;27.10;;;;;;;;;;5012305;28;20084;-39
2022/11/12 11:10:26;;;;;;;59.85;27.25;;;;;;;;;;5016259;28;20124;-39
2022/11/12 11:13:26;;;;;;;79.80;30.90;;;;;;;;;;5015518;28;20201;-39
2022/11/12 11:16:12;;;;;;;73.25;30.23;;;;;;;;;;5013648;28;20202;-39
2022/11/12 11:18:59;;;;;;;60.00;29.23;;;;;;;;;;5018946;28;20164;-38
2022/11/12 11:21:48;;;;;;;59.53;25.88;;;;;;;;;;5020446;28;20049;-39
2022/11/12 11:24:43;;;;;;;66.22;29.13;;;;;;;;;;5018848;28;20056;-38
2022/11/12 11:27:47;;;;;;;63.00;26.95;;;;;;;;;;5019383;28;20083;-38
2022/11/12 11:30:32;;;;;;;69.38;29.48;;;;;;;;;;5021090;28;20172;-38
2022/11/12 11:33:23;;;;;;;52.28;26.85;;;;;;;;;;5021278;28;20177;-38
2022/11/12 11:36:20;;;;;;;59.72;26.52;;;;;;;;;;5021022;28;20107;-39
2022/11/12 11:39:16;;;;;;;50.65;25.83;;;;;;;;;;5017045;28;20123;-39
2022/11/12 11:42:04;;;;;;;50.60;25.80;;;;;;;;;;5021730;28;20422;-38
2022/11/12 11:44:59;;;;;;;55.85;25.80;;;;;;;;;;5020540;28;20052;-39
2022/11/12 11:48:00;;;;;;;64.90;26.25;;;;;;;;;;5015852;28;20126;-38
2022/11/12 11:51:25;;;;;;;49.60;25.30;;;;;;;;;;5020571;28;20052;-39
2022/11/12 11:54:11;;;;;;;59.40;26.33;;;;;;;;;;4991160;28;20790;-39
2022/11/12 11:56:57;;;;;;;51.63;24.00;;;;;;;;;;4995166;28;20073;-38
2022/11/12 11:59:42;;;;;;;66.82;24.38;;;;;;;;;;4993965;28;20053;-38
2022/11/12 12:02:36;;;;;;;63.83;26.08;;;;;;;;;;4994107;28;20049;-38
2022/11/12 12:05:33;;;;;;;48.40;22.90;;;;;;;;;;4995907;28;20494;-39
2022/11/12 12:08:23;;;;;;;56.53;23.88;;;;;;;;;;4990843;28;20057;-39
2022/11/12 12:11:27;;;;;;;55.00;23.67;;;;;;;;;;4998436;28;20454;-39
2022/11/12 12:14:17;;;;;;;60.15;24.70;;;;;;;;;;4993772;28;20153;-38
2022/11/12 12:17:05;;;;;;;51.33;22.23;;;;;;;;;;4994472;28;20128;-39
2022/11/12 12:19:50;;;;;;;58.15;25.48;;;;;;;;;;4993323;28;20403;-38
2022/11/12 12:22:45;;;;;;;63.17;25.40;;;;;;;;;;4990600;28;20057;-39
2022/11/12 12:25:35;;;;;;;65.63;25.85;;;;;;;;;;5016455;28;20049;-38
2022/11/12 12:28:20;;;;;;;65.85;24.88;;;;;;;;;;5019616;28;20053;-38
2022/11/12 12:31:17;;;;;;;62.20;24.90;;;;;;;;;;5017222;28;20058;-39
2022/11/12 12:34:05;;;;;;;74.35;29.20;;;;;;;;;;5020305;28;20418;-38
2022/11/12 12:36:53;;;;;;;70.55;25.95;;;;;;;;;;5022654;28;20065;-39
2022/11/12 12:39:45;;;;;;;61.08;24.73;;;;;;;;;;5020707;28;20064;-38
2022/11/12 12:42:44;;;;;;;53.47;22.53;;;;;;;;;;5020782;28;20060;-39
2022/11/12 12:45:33;;;;;;;60.95;27.58;;;;;;;;;;5019444;28;20049;-38
2022/11/12 12:48:23;;;;;;;61.45;29.25;;;;;;;;;;5017741;28;20137;-40
2022/11/12 12:51:09;;;;;;;56.65;26.08;;;;;;;;;;5018959;28;20523;-39
2022/11/12 12:53:54;;;;;;;65.35;28.17;;;;;;;;;;5018753;28;20052;-38
2022/11/12 12:56:43;;;;;;;47.38;23.75;;;;;;;;;;5021088;28;20059;-38
2022/11/12 12:59:28;;;;;;;50.22;22.25;;;;;;;;;;5020974;28;20595;-38
2022/11/12 13:02:21;;;;;;;47.38;20.77;;;;;;;;;;5011864;28;20055;-38
2022/11/12 13:05:20;;;;;;;51.75;21.73;;;;;;;;;;5019232;28;20047;-38
2022/11/12 13:08:13;;;;;;;50.53;20.13;;;;;;;;;;5012281;28;20056;-38
2022/11/12 13:10:58;;;;;;;62.40;22.77;;;;;;;;;;5013718;28;20056;-38
2022/11/12 13:13:43;;;;;;;50.50;21.80;;;;;;;;;;5014965;28;20061;-38
2022/11/12 13:16:51;;;;;;;55.40;22.00;;;;;;;;;;5018225;28;20041;-39
2022/11/12 13:19:36;;;;;;;58.97;22.40;;;;;;;;;;5016172;28;20784;-39
2022/11/12 13:22:22;;;;;;;61.08;21.92;;;;;;;;;;5018793;28;21085;-40
2022/11/12 13:25:10;;;;;;;65.22;23.27;;;;;;;;;;5016893;28;20528;-40
2022/11/12 13:28:02;;;;;;;63.97;22.85;;;;;;;;;;5019825;28;20095;-39
2022/11/12 13:30:47;;;;;;;65.55;22.60;;;;;;;;;;5023628;28;20064;-38
2022/11/12 13:33:32;;;;;;;51.13;21.15;;;;;;;;;;5016921;28;20128;-39
2022/11/12 13:36:25;;;;;;;57.05;23.20;;;;;;;;;;5018331;28;20056;-38
2022/11/12 13:39:12;;;;;;;62.17;23.48;;;;;;;;;;5018903;28;20099;-38
2022/11/12 13:45:04;;;;;;;55.50;25.45;;;;;;;;;;5017566;28;20533;-38
2022/11/12 13:47:49;;;;;;;60.17;26.00;;;;;;;;;;5020810;28;20068;-38
2022/11/12 13:50:34;;;;;;;51.63;24.15;;;;;;;;;;5016986;28;20520;-38
2022/11/12 13:53:25;;;;;;;50.25;24.35;;;;;;;;;;5019295;28;20441;-38
2022/11/12 13:56:12;;;;;;;52.08;20.08;;;;;;;;;;5013256;28;20060;-38
2022/11/12 13:59:07;;;;;;;45.72;21.38;;;;;;;;;;5017771;28;20048;-38
2022/11/12 14:01:52;;;;;;;58.05;24.38;;;;;;;;;;5015798;28;20184;-38
2022/11/12 14:04:38;;;;;;;54.17;22.42;;;;;;;;;;5018550;28;20049;-38
2022/11/12 14:07:48;;;;;;;63.55;27.08;;;;;;;;;;5017856;28;20504;-39
2022/11/12 14:10:39;;;;;;;67.47;27.27;;;;;;;;;;5014536;28;20421;-40
2022/11/12 14:13:39;;;;;;;60.00;26.45;;;;;;;;;;5019130;28;20131;-39
2022/11/12 14:16:24;;;;;;;;;;;;;;;;;;5017832;28;20072;-40
2022/11/12 14:19:15;;;;;;;77.07;29.23;;;;;;;;;;5011437;28;19928;-39
2022/11/12 14:22:01;;;;;;;70.18;28.17;;;;;;;;;;5018906;28;20056;-40
2022/11/12 14:24:48;;;;;;;65.18;27.42;;;;;;;;;;5020705;28;20052;-39
2022/11/12 14:27:34;;;;;;;77.53;28.27;;;;;;;;;;5016298;28;20068;-39
2022/11/12 14:30:20;;;;;;;69.80;28.20;;;;;;;;;;5018349;28;20064;-38
2022/11/12 14:33:09;;;;;;;68.90;29.40;;;;;;;;;;5016864;28;20816;-39
2022/11/12 14:36:02;;;;;;;76.60;32.42;;;;;;;;;;5012287;28;20059;-39
2022/11/12 14:38:50;;;;;;;60.60;29.67;;;;;;;;;;5015210;28;20060;-39
2022/11/12 14:41:36;;;;;;;60.42;31.88;;;;;;;;;;5015108;28;20045;-39
2022/11/12 14:44:29;;;;;;;60.33;28.08;;;;;;;;;;5014275;28;20071;-40
2022/11/12 14:47:16;;;;;;;56.95;27.83;;;;;;;;;;5016765;28;20059;-39
2022/11/12 14:50:01;;;;;;;65.05;28.98;;;;;;;;;;5011995;28;20608;-39
2022/11/12 14:52:48;;;;;;;61.42;29.52;;;;;;;;;;5017719;28;20628;-38
2022/11/12 14:55:35;;;;;;;72.28;30.98;;;;;;;;;;5012695;28;20049;-40
2022/11/12 14:58:21;;;;;;;76.82;31.95;;;;;;;;;;5017136;28;20513;-40
2022/11/12 15:01:16;;;;;;;72.32;34.28;;;;;;;;;;5015145;28;20056;-39
2022/11/12 15:04:24;;;;;;;72.55;31.88;;;;;;;;;;5016444;28;20045;-39
2022/11/12 15:07:22;;;;;;;75.60;29.85;;;;;;;;;;5021217;28;20057;-38
2022/11/12 15:10:25;;;;;;;62.75;28.65;;;;;;;;;;5018413;28;20052;-39
2022/11/12 15:13:14;;;;;;;89.45;34.70;;;;;;;;;;5019117;28;20044;-39
2022/11/12 15:16:06;;;;;;;102.45;38.55;;;;;;;;;;5022089;28;20060;-39
2022/11/12 15:19:17;;;;;;;91.82;35.78;;;;;;;;;;5025713;28;20143;-39
2022/11/12 15:22:03;;;;;;;79.70;36.13;;;;;;;;;;5019399;28;20047;-39
2022/11/12 15:24:48;;;;;;;75.57;35.97;;;;;;;;;;5022604;28;20061;-39
2022/11/12 15:27:36;;;;;;;82.43;36.72;;;;;;;;;;5023955;28;20052;-39
2022/11/12 15:30:23;;;;;;;60.83;29.02;;;;;;;;;;5019445;28;20517;-40
2022/11/12 15:33:15;;;;;;;57.15;27.85;;;;;;;;;;5018122;28;20530;-39
2022/11/12 15:36:00;;;;;;;77.28;30.95;;;;;;;;;;5013817;28;20176;-39
2022/11/12 15:38:50;;;;;;;57.58;29.13;;;;;;;;;;5017198;28;20068;-39
2022/11/12 15:41:34;;;;;;;67.55;32.88;;;;;;;;;;5019350;28;20049;-39
2022/11/12 15:44:19;;;;;;;72.88;30.08;;;;;;;;;;5017981;28;20053;-39
2022/11/12 15:47:04;;;;;;;68.68;32.17;;;;;;;;;;5019760;28;20099;-39
2022/11/12 15:49:54;;;;;;;81.45;33.97;;;;;;;;;;5020610;28;20057;-39
2022/11/12 15:52:39;;;;;;;65.32;32.05;;;;;;;;;;5016322;28;20071;-39
2022/11/12 15:55:24;;;;;;;68.57;31.60;;;;;;;;;;5019247;28;20064;-39
2022/11/12 15:58:16;;;;;;;90.30;35.08;;;;;;;;;;5016244;28;20095;-40
2022/11/12 16:01:01;;;;;;;65.65;30.85;;;;;;;;;;5020955;28;20056;-38
2022/11/12 16:03:46;;;;;;;68.72;30.83;;;;;;;;;;5019477;28;20057;-38
2022/11/12 16:06:31;;;;;;;77.80;31.27;;;;;;;;;;5020886;28;20060;-39
2022/11/12 16:09:16;;;;;;;69.85;34.03;;;;;;;;;;5019278;28;20057;-39
2022/11/12 16:12:01;;;;;;;66.93;31.80;;;;;;;;;;5019447;28;20085;-38
2022/11/12 16:14:46;;;;;;;69.68;31.58;;;;;;;;;;5017058;28;20088;-39
2022/11/12 16:17:31;;;;;;;72.90;32.22;;;;;;;;;;5020950;28;20119;-39
2022/11/12 16:20:20;;;;;;;66.80;29.58;;;;;;;;;;5017396;28;20576;-39
2022/11/12 16:23:05;;;;;;;64.03;29.58;;;;;;;;;;5016391;28;20053;-38
2022/11/12 16:25:50;;;;;;;71.78;32.38;;;;;;;;;;5016296;28;20049;-39
2022/11/12 16:28:35;;;;;;;68.72;30.42;;;;;;;;;;5014607;28;20534;-39
2022/11/12 16:31:20;;;;;;;66.25;31.33;;;;;;;;;;5020557;28;20509;-40
2022/11/12 16:34:06;;;;;;;77.45;36.08;;;;;;;;;;5019138;28;20414;-39
2022/11/12 16:36:51;;;;;;;77.88;36.63;;;;;;;;;;5023073;28;20548;-39
2022/11/12 16:39:36;;;;;;;66.10;32.90;;;;;;;;;;5018988;28;20194;-39
2022/11/12 16:42:21;;;;;;;81.68;33.45;;;;;;;;;;5019701;28;20053;-40
2022/11/12 16:45:07;;;;;;;69.18;30.83;;;;;;;;;;5013143;28;20128;-38
2022/11/12 16:47:54;;;;;;;70.90;33.22;;;;;;;;;;5016410;28;20172;-39